Time,TemperatureF,DewpointF,PressureIn,WindDirection,WindDirectionDegrees,WindSpeedMPH,WindSpeedGustMPH,Humidity,HourlyPrecipIn,Conditions,Clouds,dailyrainin,SoftwareType,DateUTC
2013-04-25 12:29:00,139.3,62.3,30.38,ENE,68,0.4,0.4,1,0.00,,,0.00,WUHU216HW,2013-04-25 17:29:00,
2013-04-25 12:34:00,135.7,60.5,30.38,SSW,203,6.3,6.3,1,0.00,,,0.00,WUHU216HW,2013-04-25 17:34:00,
2013-04-25 12:39:00,134.3,59.5,30.38,WSW,248,2.5,6.3,1,0.00,,,0.00,WUHU216HW,2013-04-25 17:39:00,
2013-04-25 12:44:00,132.8,58.3,30.38,SSW,203,1.3,6.3,1,0.00,,,0.00,WUHU216HW,2013-04-25 17:44:00,
2013-04-25 12:49:00,130.1,56.3,30.38,West,270,2.2,2.5,1,0.00,,,0.00,WUHU216HW,2013-04-25 17:49:00,
2013-04-25 12:54:00,129.6,55.9,30.38,SE,135,4.0,4.0,1,0.00,,,0.00,WUHU216HW,2013-04-25 17:54:00,
2013-04-25 12:59:00,127.4,54.4,30.37,SW,225,3.8,4.0,1,0.00,,,0.00,WUHU216HW,2013-04-25 17:59:00,
2013-04-25 13:04:00,121.5,50.0,30.37,SSW,203,1.8,4.0,1,0.00,,,0.00,WUHU216HW,2013-04-25 18:04:00,
2013-04-25 13:09:00,120.8,49.4,30.37,SE,135,1.8,5.1,1,0.00,,,0.00,WUHU216HW,2013-04-25 18:09:00,
2013-04-25 13:14:00,121.3,49.9,30.36,SSW,203,4.7,5.1,1,0.00,,,0.00,WUHU216HW,2013-04-25 18:14:00,
2013-04-25 13:19:00,115.7,45.6,30.36,SSE,158,2.5,4.7,1,0.00,,,0.00,WUHU216HW,2013-04-25 18:19:00,
2013-04-25 13:24:00,117.9,47.3,30.36,ESE,113,2.2,4.7,1,0.00,,,0.00,WUHU216HW,2013-04-25 18:24:00,
2013-04-25 13:29:00,117.9,47.3,30.36,NW,315,1.3,2.5,1,0.00,,,0.00,WUHU216HW,2013-04-25 18:29:00,
2013-04-25 13:34:00,113.8,44.1,30.36,SW,225,4.7,4.7,1,0.00,,,0.00,WUHU216HW,2013-04-25 18:34:00,
2013-04-25 13:39:00,112.0,42.9,30.36,SSW,203,3.8,4.7,1,0.00,,,0.00,WUHU216HW,2013-04-25 18:39:00,
2013-04-25 13:44:00,110.2,41.4,30.35,SW,225,2.5,4.7,1,0.00,,,0.00,WUHU216HW,2013-04-25 18:44:00,
2013-04-25 13:49:00,108.0,39.9,30.35,WSW,248,5.1,5.1,1,0.00,,,0.00,WUHU216HW,2013-04-25 18:49:00,
2013-04-25 13:54:00,106.4,38.6,30.35,SW,225,3.4,5.1,1,0.00,,,0.00,WUHU216HW,2013-04-25 18:54:00,
2013-04-25 13:59:00,104.4,37.2,30.35,SW,225,1.1,5.1,1,0.00,,,0.00,WUHU216HW,2013-04-25 18:59:00,
2013-04-25 14:04:00,103.9,36.7,30.35,South,180,1.1,3.4,1,0.00,,,0.00,WUHU216HW,2013-04-25 19:04:00,
2013-04-25 14:09:00,105.5,37.9,30.35,SE,135,2.7,4.9,1,0.00,,,0.00,WUHU216HW,2013-04-25 19:09:00,
2013-04-25 14:14:00,99.4,33.3,30.35,SSE,158,4.7,4.9,1,0.00,,,0.00,WUHU216HW,2013-04-25 19:14:00,
2013-04-25 14:19:00,103.5,36.5,30.34,WSW,248,4.7,4.7,1,0.00,,,0.00,WUHU216HW,2013-04-25 19:19:00,
2013-04-25 14:24:00,101.2,34.8,30.34,WSW,248,2.9,4.7,1,0.00,,,0.00,WUHU216HW,2013-04-25 19:24:00,
2013-04-25 14:29:00,99.2,33.2,30.34,West,270,5.1,5.1,1,0.00,,,0.00,WUHU216HW,2013-04-25 19:29:00,
2013-04-25 14:34:00,95.8,30.6,30.34,SW,225,4.0,5.1,1,0.00,,,0.00,WUHU216HW,2013-04-25 19:34:00,
2013-04-25 14:39:00,97.7,32.0,30.34,West,270,1.3,5.1,1,0.00,,,0.00,WUHU216HW,2013-04-25 19:39:00,
2013-04-25 14:44:00,94.5,29.6,30.33,SSW,203,4.5,4.7,1,0.00,,,0.00,WUHU216HW,2013-04-25 19:44:00,
2013-04-25 14:49:00,97.0,31.5,30.33,SE,135,2.7,4.5,1,0.00,,,0.00,WUHU216HW,2013-04-25 19:49:00,
2013-04-25 14:54:00,95.8,30.6,30.33,SSW,203,5.4,5.4,1,0.00,,,0.00,WUHU216HW,2013-04-25 19:54:00,
2013-04-25 14:59:00,95.4,30.3,30.33,West,270,3.4,6.5,1,0.00,,,0.00,WUHU216HW,2013-04-25 19:59:00,
2013-04-25 15:04:00,92.9,28.4,30.33,ESE,113,2.5,6.5,1,0.00,,,0.00,WUHU216HW,2013-04-25 20:04:00,
2013-04-25 15:09:00,92.9,28.4,30.32,SW,225,1.1,4.3,1,0.00,,,0.00,WUHU216HW,2013-04-25 20:09:00,
2013-04-25 15:14:00,93.1,28.5,30.32,SSW,203,2.5,4.3,1,0.00,,,0.00,WUHU216HW,2013-04-25 20:14:00,
2013-04-25 15:19:00,90.7,26.8,30.32,WNW,293,3.4,4.9,1,0.00,,,0.00,WUHU216HW,2013-04-25 20:19:00,
2013-04-25 15:24:00,91.1,27.1,30.32,SSE,158,6.9,6.9,1,0.00,,,0.00,WUHU216HW,2013-04-25 20:24:00,
2013-04-25 15:29:00,90.2,26.4,30.32,South,180,3.6,6.9,1,0.00,,,0.00,WUHU216HW,2013-04-25 20:29:00,
2013-04-25 15:34:00,88.2,24.9,30.32,SE,135,4.0,6.9,1,0.00,,,0.00,WUHU216HW,2013-04-25 20:34:00,
2013-04-25 15:39:00,88.4,25.0,30.32,WSW,248,5.4,5.4,1,0.00,,,0.00,WUHU216HW,2013-04-25 20:39:00,
2013-04-25 15:44:00,88.4,25.0,30.31,SSE,158,3.8,5.4,1,0.00,,,0.00,WUHU216HW,2013-04-25 20:44:00,
2013-04-25 15:49:00,88.2,24.9,30.31,WSW,248,3.8,5.4,1,0.00,,,0.00,WUHU216HW,2013-04-25 20:49:00,
2013-04-25 15:54:00,87.5,24.4,30.31,SSE,158,3.6,5.8,1,0.00,,,0.00,WUHU216HW,2013-04-25 20:54:00,
2013-04-25 15:59:00,87.7,24.5,30.30,SE,135,4.0,5.8,1,0.00,,,0.00,WUHU216HW,2013-04-25 20:59:00,
2013-04-25 16:04:00,87.1,24.1,30.30,SW,225,5.8,5.8,1,0.00,,,0.00,WUHU216HW,2013-04-25 21:04:00,
2013-04-25 16:09:00,86.4,23.5,30.30,SW,225,4.0,5.8,1,0.00,,,0.00,WUHU216HW,2013-04-25 21:09:00,
2013-04-25 16:14:00,86.4,23.5,30.31,WSW,248,3.4,6.9,1,0.00,,,0.00,WUHU216HW,2013-04-25 21:14:00,
2013-04-25 16:19:00,84.6,22.1,30.30,SSW,203,5.1,6.9,1,0.00,,,0.00,WUHU216HW,2013-04-25 21:19:00,
2013-04-25 16:24:00,85.9,23.0,30.30,WSW,248,5.4,5.4,1,0.00,,,0.00,WUHU216HW,2013-04-25 21:24:00,
2013-04-25 16:29:00,86.0,23.2,30.30,SW,225,1.6,7.6,1,0.00,,,0.00,WUHU216HW,2013-04-25 21:29:00,
2013-04-25 16:34:00,84.6,22.1,30.30,WSW,248,6.0,7.6,1,0.00,,,0.00,WUHU216HW,2013-04-25 21:34:00,
2013-04-25 16:39:00,84.1,21.7,30.29,West,270,3.1,7.2,1,0.00,,,0.00,WUHU216HW,2013-04-25 21:39:00,
2013-04-25 16:44:00,85.1,22.5,30.29,West,270,4.7,6.0,1,0.00,,,0.00,WUHU216HW,2013-04-25 21:44:00,
2013-04-25 16:49:00,83.5,21.2,30.29,SSE,158,3.1,4.7,1,0.00,,,0.00,WUHU216HW,2013-04-25 21:49:00,
2013-04-25 16:54:00,84.6,22.1,30.29,South,180,3.1,4.7,1,0.00,,,0.00,WUHU216HW,2013-04-25 21:54:00,
2013-04-25 16:59:00,82.1,20.3,30.29,SSW,203,8.1,8.1,1,0.00,,,0.00,WUHU216HW,2013-04-25 21:59:00,
2013-04-25 17:04:00,82.6,20.6,30.28,SSE,158,6.7,8.1,1,0.00,,,0.00,WUHU216HW,2013-04-25 22:04:00,
2013-04-25 17:09:00,84.6,22.1,30.28,SSE,158,4.9,8.1,1,0.00,,,0.00,WUHU216HW,2013-04-25 22:09:00,
2013-04-25 17:14:00,82.3,20.3,30.28,WSW,248,7.8,7.8,1,0.00,,,0.00,WUHU216HW,2013-04-25 22:14:00,
2013-04-25 17:19:00,83.7,21.4,30.28,SW,225,3.4,7.8,1,0.00,,,0.00,WUHU216HW,2013-04-25 22:19:00,
2013-04-25 17:24:00,82.4,20.5,30.28,South,180,2.7,7.8,1,0.00,,,0.00,WUHU216HW,2013-04-25 22:24:00,
2013-04-25 17:29:00,83.2,21.1,30.28,WSW,248,4.5,4.5,1,0.00,,,0.00,WUHU216HW,2013-04-25 22:29:00,
2013-04-25 17:34:00,82.1,20.3,30.28,SSW,203,2.5,4.5,1,0.00,,,0.00,WUHU216HW,2013-04-25 22:34:00,
2013-04-25 17:39:00,83.3,21.2,30.28,South,180,3.6,4.5,1,0.00,,,0.00,WUHU216HW,2013-04-25 22:39:00,
2013-04-25 17:44:00,83.2,21.1,30.28,South,180,4.7,4.7,1,0.00,,,0.00,WUHU216HW,2013-04-25 22:44:00,
2013-04-25 17:49:00,82.3,20.3,30.28,SSW,203,3.4,4.7,1,0.00,,,0.00,WUHU216HW,2013-04-25 22:49:00,
2013-04-25 17:54:00,82.4,20.5,30.28,WSW,248,6.7,6.7,1,0.00,,,0.00,WUHU216HW,2013-04-25 22:54:00,
2013-04-25 17:59:00,82.4,20.5,30.28,WSW,248,6.3,6.7,1,0.00,,,0.00,WUHU216HW,2013-04-25 22:59:00,
2013-04-25 18:04:00,82.3,20.3,30.28,SE,135,4.7,6.7,1,0.00,,,0.00,WUHU216HW,2013-04-25 23:04:00,
2013-04-25 18:09:00,81.9,20.1,30.28,SSE,158,2.9,6.3,1,0.00,,,0.00,WUHU216HW,2013-04-25 23:09:00,
2013-04-25 18:14:00,81.5,19.8,30.28,SW,225,2.0,4.7,1,0.00,,,0.00,WUHU216HW,2013-04-25 23:14:00,
2013-04-25 18:19:00,81.7,20.0,30.28,SW,225,6.0,6.0,1,0.00,,,0.00,WUHU216HW,2013-04-25 23:19:00,
2013-04-25 18:24:00,82.3,20.3,30.28,SE,135,7.8,7.8,1,0.00,,,0.00,WUHU216HW,2013-04-25 23:24:00,
2013-04-25 18:29:00,81.0,19.4,30.27,SSE,158,2.5,7.8,1,0.00,,,0.00,WUHU216HW,2013-04-25 23:29:00,
2013-04-25 18:34:00,81.7,20.0,30.27,SE,135,6.3,7.8,1,0.00,,,0.00,WUHU216HW,2013-04-25 23:34:00,
2013-04-25 18:39:00,82.3,20.3,30.27,South,180,6.0,6.3,1,0.00,,,0.00,WUHU216HW,2013-04-25 23:39:00,
2013-04-25 18:44:00,83.0,20.9,30.27,SSE,158,5.1,6.3,1,0.00,,,0.00,WUHU216HW,2013-04-25 23:44:00,
2013-04-25 18:49:00,81.7,20.0,30.27,SW,225,1.3,6.0,1,0.00,,,0.00,WUHU216HW,2013-04-25 23:49:00,
2013-04-25 18:54:00,82.4,20.5,30.27,SSW,203,3.4,5.1,1,0.00,,,0.00,WUHU216HW,2013-04-25 23:54:00,
2013-04-25 18:59:00,81.7,20.0,30.27,SSW,203,3.4,3.4,1,0.00,,,0.00,WUHU216HW,2013-04-25 23:59:00,
2013-04-25 19:04:00,83.5,21.2,30.26,South,180,5.1,5.1,1,0.00,,,0.00,WUHU216HW,2013-04-26 00:04:00,
2013-04-25 19:09:00,81.5,19.8,30.27,SE,135,5.6,5.6,1,0.00,,,0.00,WUHU216HW,2013-04-26 00:09:00,
2013-04-25 19:14:00,83.0,20.9,30.26,SSW,203,4.3,5.6,1,0.00,,,0.00,WUHU216HW,2013-04-26 00:14:00,
2013-04-25 19:19:00,83.5,21.2,30.26,WSW,248,5.1,5.6,1,0.00,,,0.00,WUHU216HW,2013-04-26 00:19:00,
2013-04-25 19:24:00,83.9,21.5,30.26,SSE,158,2.5,5.1,1,0.00,,,0.00,WUHU216HW,2013-04-26 00:24:00,
2013-04-25 19:29:00,83.7,21.4,30.26,SE,135,3.8,5.1,1,0.00,,,0.00,WUHU216HW,2013-04-26 00:29:00,
2013-04-25 19:34:00,85.1,22.5,30.26,South,180,3.4,3.8,1,0.00,,,0.00,WUHU216HW,2013-04-26 00:34:00,
2013-04-25 19:39:00,83.3,21.2,30.26,SW,225,3.4,3.8,1,0.00,,,0.00,WUHU216HW,2013-04-26 00:39:00,
2013-04-25 19:44:00,85.7,23.0,30.26,South,180,2.9,3.4,1,0.00,,,0.00,WUHU216HW,2013-04-26 00:44:00,
2013-04-25 19:49:00,86.0,23.2,30.26,SW,225,3.4,3.4,1,0.00,,,0.00,WUHU216HW,2013-04-26 00:49:00,
2013-04-25 19:54:00,85.5,22.8,30.26,SSW,203,4.5,4.5,1,0.00,,,0.00,WUHU216HW,2013-04-26 00:54:00,
2013-04-25 19:59:00,88.0,24.8,30.25,SE,135,4.0,4.5,1,0.00,,,0.00,WUHU216HW,2013-04-26 00:59:00,
2013-04-25 20:04:00,87.3,24.2,30.25,SSE,158,2.7,4.5,1,0.00,,,0.00,WUHU216HW,2013-04-26 01:04:00,
2013-04-25 20:09:00,87.8,24.7,30.25,SSE,158,2.2,4.0,1,0.00,,,0.00,WUHU216HW,2013-04-26 01:09:00,
2013-04-25 20:14:00,88.6,25.2,30.26,SSE,158,3.4,6.9,1,0.00,,,0.00,WUHU216HW,2013-04-26 01:14:00,
2013-04-25 20:19:00,90.9,26.9,30.25,South,180,2.2,6.9,1,0.00,,,0.00,WUHU216HW,2013-04-26 01:19:00,
2013-04-25 20:24:00,89.6,25.9,30.26,SSW,203,2.2,3.4,1,0.00,,,0.00,WUHU216HW,2013-04-26 01:24:00,
2013-04-25 20:29:00,90.9,26.9,30.26,SE,135,3.1,4.7,1,0.00,,,0.00,WUHU216HW,2013-04-26 01:29:00,
2013-04-25 20:34:00,94.0,29.2,30.26,SE,135,4.9,4.9,1,0.00,,,0.00,WUHU216HW,2013-04-26 01:34:00,
2013-04-25 20:39:00,91.3,27.2,30.25,SSE,158,1.6,4.9,1,0.00,,,0.00,WUHU216HW,2013-04-26 01:39:00,
2013-04-25 20:44:00,95.4,30.3,30.25,SSE,158,7.6,7.6,1,0.00,,,0.00,WUHU216HW,2013-04-26 01:44:00,
2013-04-25 20:49:00,95.0,30.1,30.26,South,180,3.6,7.6,1,0.00,,,0.00,WUHU216HW,2013-04-26 01:49:00,
2013-04-25 20:54:00,96.8,31.3,30.26,South,180,5.1,7.6,1,0.00,,,0.00,WUHU216HW,2013-04-26 01:54:00,
2013-04-25 20:59:00,95.2,30.2,30.26,South,180,4.0,5.1,1,0.00,,,0.00,WUHU216HW,2013-04-26 01:59:00,
2013-04-25 21:04:00,97.6,31.9,30.26,SSE,158,2.2,5.1,1,0.00,,,0.00,WUHU216HW,2013-04-26 02:04:00,
2013-04-25 21:09:00,99.4,33.3,30.26,SE,135,5.1,5.1,1,0.00,,,0.00,WUHU216HW,2013-04-26 02:09:00,
2013-04-25 21:14:00,101.7,35.1,30.26,SSE,158,1.3,5.1,1,0.00,,,0.00,WUHU216HW,2013-04-26 02:14:00,
2013-04-25 21:19:00,104.8,37.5,30.26,SSE,158,2.7,5.1,1,0.00,,,0.00,WUHU216HW,2013-04-26 02:19:00,
2013-04-25 21:24:00,101.2,34.8,30.26,SSE,158,1.6,3.1,1,0.00,,,0.00,WUHU216HW,2013-04-26 02:24:00,
2013-04-25 21:29:00,102.8,35.9,30.26,South,180,2.5,2.7,1,0.00,,,0.00,WUHU216HW,2013-04-26 02:29:00,
2013-04-25 21:34:00,106.7,38.9,30.26,SSE,158,4.0,4.0,1,0.00,,,0.00,WUHU216HW,2013-04-26 02:34:00,
2013-04-25 21:39:00,104.2,37.0,30.26,SSE,158,3.4,4.0,1,0.00,,,0.00,WUHU216HW,2013-04-26 02:39:00,
2013-04-25 21:43:00,106.2,38.4,30.26,SSE,158,2.2,4.0,1,0.00,,,0.00,WUHU216HW,2013-04-26 02:43:00,
2013-04-25 21:48:00,109.4,40.9,30.26,SSE,158,1.6,3.4,1,0.00,,,0.00,WUHU216HW,2013-04-26 02:48:00,
2013-04-25 21:53:00,108.5,40.2,30.26,SE,135,1.8,2.2,1,0.00,,,0.00,WUHU216HW,2013-04-26 02:53:00,
2013-04-25 21:58:00,111.6,42.6,30.26,ESE,113,3.4,3.4,1,0.00,,,0.00,WUHU216HW,2013-04-26 02:58:00,
2013-04-25 22:03:00,115.2,45.3,30.26,SSE,158,3.6,3.6,1,0.00,,,0.00,WUHU216HW,2013-04-26 03:03:00,
2013-04-25 22:08:00,111.2,42.3,30.26,SE,135,1.8,3.6,1,0.00,,,0.00,WUHU216HW,2013-04-26 03:08:00,
2013-04-25 22:13:00,110.7,41.9,30.26,SE,135,1.1,3.6,1,0.00,,,0.00,WUHU216HW,2013-04-26 03:13:00,
2013-04-25 22:18:00,118.4,47.7,30.26,SSE,158,1.3,2.0,1,0.00,,,0.00,WUHU216HW,2013-04-26 03:18:00,
2013-04-25 22:23:00,113.6,44.0,30.26,SSE,158,2.0,2.0,1,0.00,,,0.00,WUHU216HW,2013-04-26 03:23:00,
2013-04-25 22:28:00,120.1,48.9,30.26,South,180,2.2,2.2,1,0.00,,,0.00,WUHU216HW,2013-04-26 03:28:00,
2013-04-25 22:33:00,116.3,46.0,30.25,South,180,3.8,3.8,1,0.00,,,0.00,WUHU216HW,2013-04-26 03:33:00,
2013-04-25 22:38:00,124.2,51.9,30.25,SSE,158,1.1,3.8,1,0.00,,,0.00,WUHU216HW,2013-04-26 03:38:00,
2013-04-25 22:43:00,117.7,47.2,30.25,SE,135,2.0,3.8,1,0.00,,,0.00,WUHU216HW,2013-04-26 03:43:00,
2013-04-25 22:48:00,123.3,51.3,30.25,SSE,158,4.9,4.9,1,0.00,,,0.00,WUHU216HW,2013-04-26 03:48:00,
2013-04-25 22:53:00,125.3,52.7,30.25,South,180,2.7,4.9,1,0.00,,,0.00,WUHU216HW,2013-04-26 03:53:00,
2013-04-25 22:58:00,128.2,54.9,30.25,SSE,158,2.2,4.9,1,0.00,,,0.00,WUHU216HW,2013-04-26 03:58:00,
2013-04-25 23:01:00,128.2,54.9,30.25,SSE,158,2.2,2.7,1,0.00,,,0.00,WUHU216HW,2013-04-26 04:01:00,
2013-04-25 23:06:00,127.8,54.6,30.25,SSE,158,2.2,2.7,1,0.00,,,0.00,WUHU216HW,2013-04-26 04:06:00,
2013-04-25 23:11:00,128.2,54.9,30.24,SSE,158,3.6,3.6,1,0.00,,,0.00,WUHU216HW,2013-04-26 04:11:00,
2013-04-25 23:16:00,133.2,58.6,30.24,SE,135,1.1,3.6,1,0.00,,,0.00,WUHU216HW,2013-04-26 04:16:00,
2013-04-25 23:21:00,135.5,60.4,30.24,SSE,158,1.8,4.0,1,0.00,,,0.00,WUHU216HW,2013-04-26 04:21:00,
2013-04-25 23:26:00,131.6,57.4,30.24,South,180,2.2,4.0,1,0.00,,,0.00,WUHU216HW,2013-04-26 04:26:00,
2013-04-25 23:31:00,135.0,60.0,30.24,South,180,2.9,4.3,1,0.00,,,0.00,WUHU216HW,2013-04-26 04:31:00,
2013-04-25 23:36:00,136.6,61.1,30.24,SE,135,1.8,4.3,1,0.00,,,0.00,WUHU216HW,2013-04-26 04:36:00,
2013-04-25 23:41:00,135.0,60.0,30.23,SE,135,2.2,2.9,1,0.00,,,0.00,WUHU216HW,2013-04-26 04:41:00,
2013-04-25 23:46:00,136.8,61.3,30.24,SE,135,1.1,2.2,1,0.00,,,0.00,WUHU216HW,2013-04-26 04:46:00,
2013-04-25 23:47:00,136.8,61.3,30.24,SE,135,1.1,1.1,1,0.00,,,0.00,WUHU216HW,2013-04-26 04:47:00,
2013-04-25 23:51:00,136.8,61.3,30.24,SE,135,1.1,2.2,1,0.00,,,0.00,WUHU216HW,2013-04-26 04:51:00,
2013-04-25 23:56:00,136.8,61.3,30.24,SE,135,1.1,1.1,1,0.00,,,0.00,WUHU216HW,2013-04-26 04:56:00,